createdAt,value
2017-12-31T00:01:56.977Z,93.73
2017-12-31T00:04:23.784Z,94.00
2017-12-31T00:06:51.550Z,93.73
2017-12-31T00:09:19.767Z,93.78
2017-12-31T00:11:49.678Z,92.71
2017-12-31T00:14:16.474Z,92.96
2017-12-31T00:16:43.636Z,93.97
2017-12-31T00:19:12.122Z,94.17
2017-12-31T00:21:39.843Z,94.50
2017-12-31T00:24:07.544Z,94.41
2017-12-31T00:26:34.467Z,94.64
2017-12-31T00:29:02.580Z,94.98
2017-12-31T00:31:29.659Z,95.28
2017-12-31T00:33:56.519Z,95.45
2017-12-31T00:36:23.705Z,95.87
2017-12-31T00:38:50.580Z,95.95
2017-12-31T00:41:17.527Z,96.11
2017-12-31T00:43:45.147Z,96.49
2017-12-31T00:46:15.087Z,96.63
2017-12-31T00:48:47.482Z,96.60
2017-12-31T00:51:20.086Z,97.02
2017-12-31T00:53:47.341Z,97.40
2017-12-31T00:56:15.083Z,97.50
2017-12-31T00:58:42.000Z,97.57
2017-12-31T01:01:09.629Z,97.46
2017-12-31T01:03:36.625Z,97.55
2017-12-31T01:06:04.511Z,98.13
2017-12-31T01:08:34.342Z,97.75
2017-12-31T01:11:02.441Z,97.89
2017-12-31T01:13:30.174Z,97.70
2017-12-31T01:15:58.022Z,97.85
2017-12-31T01:18:25.043Z,97.94
2017-12-31T01:20:52.740Z,98.14
2017-12-31T01:23:20.792Z,98.12
2017-12-31T01:25:53.025Z,98.53
2017-12-31T01:28:25.477Z,98.72
2017-12-31T01:30:52.438Z,98.89
2017-12-31T01:33:22.266Z,99.17
2017-12-31T01:35:54.492Z,99.28
2017-12-31T01:38:27.589Z,98.92
2017-12-31T01:40:54.800Z,99.94
2017-12-31T01:43:22.150Z,100.00
2017-12-31T01:45:50.623Z,99.93
2017-12-31T01:48:18.378Z,99.33
2017-12-31T01:50:47.006Z,99.91
2017-12-31T01:53:14.390Z,99.55
2017-12-31T01:55:43.744Z,99.90
2017-12-31T01:58:14.560Z,100.00
2017-12-31T02:00:42.266Z,100.00
2017-12-31T02:03:14.816Z,100.00
2017-12-31T02:05:42.772Z,100.00
2017-12-31T02:08:12.752Z,100.00
2017-12-31T02:10:39.672Z,100.00
2017-12-31T02:13:07.415Z,100.00
2017-12-31T02:15:34.181Z,100.00
2017-12-31T02:18:01.319Z,100.00
2017-12-31T02:20:28.199Z,100.00
2017-12-31T02:22:56.125Z,100.00
2017-12-31T02:25:23.445Z,100.00
2017-12-31T02:27:50.694Z,100.00
2017-12-31T02:30:17.909Z,100.00
2017-12-31T02:32:48.818Z,100.00
2017-12-31T02:35:15.850Z,100.00
2017-12-31T02:37:48.398Z,100.00
2017-12-31T02:40:16.069Z,100.00
2017-12-31T02:42:49.305Z,100.00
2017-12-31T02:45:17.702Z,100.00
2017-12-31T02:47:45.935Z,100.00
2017-12-31T02:50:18.824Z,100.00
2017-12-31T02:52:46.093Z,100.00
2017-12-31T02:55:15.559Z,100.00
2017-12-31T02:57:44.181Z,100.00
2017-12-31T03:00:12.289Z,100.00
2017-12-31T03:02:39.727Z,100.00
2017-12-31T03:05:06.623Z,100.00
2017-12-31T03:07:33.618Z,100.00
2017-12-31T03:10:04.297Z,100.00
2017-12-31T03:12:31.317Z,100.00
2017-12-31T03:15:03.498Z,100.00
2017-12-31T03:17:31.379Z,100.00
2017-12-31T03:19:59.638Z,100.00
2017-12-31T03:22:26.553Z,100.00
2017-12-31T03:24:53.908Z,100.00
2017-12-31T03:27:21.169Z,100.00
2017-12-31T03:29:48.273Z,100.00
2017-12-31T03:32:15.414Z,100.00
2017-12-31T03:34:47.315Z,100.00
2017-12-31T03:37:15.913Z,100.00
2017-12-31T03:39:46.011Z,100.00
2017-12-31T03:42:13.651Z,100.00
2017-12-31T03:44:40.584Z,100.00
2017-12-31T03:47:07.431Z,100.00
2017-12-31T03:49:35.417Z,100.00
2017-12-31T03:52:02.291Z,100.00
2017-12-31T03:54:29.289Z,100.00
2017-12-31T03:56:56.446Z,100.00
2017-12-31T03:59:23.840Z,100.00
2017-12-31T04:01:51.872Z,100.00
2017-12-31T04:04:19.680Z,100.00
2017-12-31T04:06:46.994Z,100.00
2017-12-31T04:09:14.182Z,100.00
2017-12-31T04:11:42.175Z,100.00
2017-12-31T04:14:10.476Z,100.00
2017-12-31T04:16:37.375Z,100.00
2017-12-31T04:19:04.310Z,100.00
2017-12-31T04:21:36.491Z,100.00
2017-12-31T04:24:03.533Z,100.00
2017-12-31T04:26:31.528Z,100.00
2017-12-31T04:29:00.034Z,100.00
2017-12-31T04:31:27.047Z,100.00
2017-12-31T04:33:54.420Z,100.00
2017-12-31T04:36:27.929Z,100.00
2017-12-31T04:38:56.057Z,100.00
2017-12-31T04:41:29.256Z,100.00
2017-12-31T04:43:56.407Z,100.00
2017-12-31T04:46:23.613Z,100.00
2017-12-31T04:48:56.258Z,100.00
2017-12-31T04:51:23.151Z,100.00
2017-12-31T04:53:49.956Z,100.00
2017-12-31T04:56:22.188Z,100.00
2017-12-31T04:58:50.154Z,100.00
2017-12-31T05:01:17.014Z,100.00
2017-12-31T05:03:44.415Z,100.00
2017-12-31T05:06:11.715Z,100.00
2017-12-31T05:08:38.678Z,100.00
2017-12-31T05:11:06.475Z,100.00
2017-12-31T05:13:38.947Z,100.00
2017-12-31T05:16:06.863Z,100.00
2017-12-31T05:18:33.714Z,100.00
2017-12-31T05:21:00.914Z,100.00
2017-12-31T05:23:33.239Z,100.00
2017-12-31T05:26:01.862Z,100.00
2017-12-31T05:28:28.745Z,100.00
2017-12-31T05:30:56.624Z,100.00
2017-12-31T05:33:24.216Z,100.00
2017-12-31T05:35:51.921Z,100.00
2017-12-31T05:38:26.792Z,100.00
2017-12-31T05:40:54.867Z,100.00
2017-12-31T05:43:27.768Z,100.00
2017-12-31T05:45:56.190Z,100.00
2017-12-31T05:48:24.973Z,100.00
2017-12-31T05:50:52.250Z,100.00
2017-12-31T05:53:20.146Z,100.00
2017-12-31T05:55:49.669Z,100.00
2017-12-31T05:58:16.623Z,100.00
2017-12-31T06:00:48.708Z,100.00
2017-12-31T06:03:19.603Z,100.00
2017-12-31T06:05:52.371Z,100.00
2017-12-31T06:08:19.527Z,100.00
2017-12-31T06:10:46.709Z,100.00
2017-12-31T06:13:14.478Z,100.00
2017-12-31T06:15:43.021Z,100.00
2017-12-31T06:18:10.001Z,100.00
2017-12-31T06:20:37.230Z,100.00
2017-12-31T06:23:04.844Z,100.00
2017-12-31T06:25:32.174Z,100.00
2017-12-31T06:28:00.082Z,100.00
2017-12-31T06:30:26.884Z,100.00
2017-12-31T06:32:54.668Z,100.00
2017-12-31T06:35:21.797Z,100.00
2017-12-31T06:37:54.312Z,100.00
2017-12-31T06:40:21.169Z,100.00
2017-12-31T06:42:50.977Z,100.00
2017-12-31T06:45:18.902Z,100.00
2017-12-31T06:47:46.714Z,100.00
2017-12-31T06:50:20.627Z,99.67
2017-12-31T06:52:47.498Z,99.50
2017-12-31T06:55:15.012Z,99.37
2017-12-31T06:57:42.002Z,99.65
2017-12-31T07:00:14.024Z,99.72
2017-12-31T07:02:47.031Z,99.62
2017-12-31T07:05:14.919Z,99.97
2017-12-31T07:07:41.754Z,99.97
2017-12-31T07:10:09.365Z,100.00
2017-12-31T07:12:43.211Z,99.07
2017-12-31T07:15:15.833Z,98.72
2017-12-31T07:17:43.322Z,97.87
2017-12-31T07:20:15.696Z,98.91
2017-12-31T07:22:42.513Z,98.28
2017-12-31T07:25:09.349Z,98.08
2017-12-31T07:27:42.284Z,98.11
2017-12-31T07:30:09.550Z,97.64
2017-12-31T07:32:36.523Z,96.58
2017-12-31T07:35:03.545Z,97.33
2017-12-31T07:37:30.431Z,97.11
2017-12-31T07:39:57.461Z,95.75
2017-12-31T07:42:24.232Z,95.63
2017-12-31T07:44:51.449Z,95.53
2017-12-31T07:47:18.215Z,94.94
2017-12-31T07:49:44.976Z,94.83
2017-12-31T07:52:14.848Z,94.61
2017-12-31T07:54:41.777Z,91.94
2017-12-31T07:57:08.650Z,93.60
2017-12-31T07:59:35.654Z,93.62
2017-12-31T08:02:07.747Z,93.25
2017-12-31T08:04:34.659Z,93.31
2017-12-31T08:07:01.851Z,93.54
2017-12-31T08:09:28.943Z,91.73
2017-12-31T08:11:55.708Z,93.16
2017-12-31T08:14:23.382Z,93.00
2017-12-31T08:16:53.587Z,92.86
2017-12-31T08:19:26.529Z,94.30
2017-12-31T08:21:53.541Z,94.11
2017-12-31T08:24:24.209Z,92.91
2017-12-31T08:26:52.214Z,92.73
2017-12-31T08:29:19.884Z,92.59
2017-12-31T08:31:46.808Z,93.77
2017-12-31T08:34:18.900Z,94.49
2017-12-31T08:36:46.415Z,94.84
2017-12-31T08:39:14.296Z,94.33
2017-12-31T08:41:47.374Z,93.91
2017-12-31T08:44:15.600Z,93.56
2017-12-31T08:46:43.281Z,93.88
2017-12-31T08:49:10.891Z,93.09
2017-12-31T08:51:37.837Z,92.80
2017-12-31T08:54:06.336Z,93.22
2017-12-31T08:56:33.606Z,92.64
2017-12-31T08:59:00.949Z,92.63
2017-12-31T09:01:27.796Z,92.17
2017-12-31T09:03:54.906Z,91.75
2017-12-31T09:06:26.787Z,91.65
2017-12-31T09:08:57.090Z,91.42
2017-12-31T09:11:23.956Z,91.30
2017-12-31T09:13:51.770Z,91.41
2017-12-31T09:16:18.938Z,90.17
2017-12-31T09:18:50.937Z,89.65
2017-12-31T09:21:17.787Z,91.35
2017-12-31T09:23:50.070Z,91.08
2017-12-31T09:26:22.996Z,91.16
2017-12-31T09:28:49.799Z,90.52
2017-12-31T09:31:16.955Z,90.64
2017-12-31T09:33:46.890Z,90.56
2017-12-31T09:36:14.597Z,89.89
2017-12-31T09:38:43.627Z,90.18
2017-12-31T09:41:11.343Z,90.67
2017-12-31T09:43:38.378Z,90.33
2017-12-31T09:46:05.246Z,90.33
2017-12-31T09:48:38.633Z,89.34
2017-12-31T09:51:05.577Z,89.68
2017-12-31T09:53:32.956Z,89.83
2017-12-31T09:56:00.122Z,89.58
2017-12-31T09:58:32.966Z,89.48
2017-12-31T10:01:00.385Z,89.40
2017-12-31T10:03:27.239Z,89.33
2017-12-31T10:05:53.991Z,89.68
2017-12-31T10:08:20.822Z,88.67
2017-12-31T10:10:48.417Z,88.79
2017-12-31T10:13:15.176Z,88.22
2017-12-31T10:15:42.098Z,89.03
2017-12-31T10:18:10.372Z,88.54
2017-12-31T10:20:37.296Z,89.00
2017-12-31T10:23:04.342Z,89.11
2017-12-31T10:25:33.840Z,88.15
2017-12-31T10:28:04.502Z,88.92
2017-12-31T10:30:32.263Z,89.02
2017-12-31T10:33:00.100Z,88.77
2017-12-31T10:35:35.800Z,88.30
2017-12-31T10:38:02.634Z,88.00
2017-12-31T10:40:38.262Z,88.46
2017-12-31T10:43:05.975Z,88.06
2017-12-31T10:45:38.371Z,88.56
2017-12-31T10:48:12.279Z,88.74
2017-12-31T10:50:39.148Z,88.24
2017-12-31T10:53:08.365Z,87.44
2017-12-31T10:55:36.247Z,88.25
2017-12-31T10:58:03.200Z,87.69
2017-12-31T11:00:36.363Z,87.83
2017-12-31T11:03:04.257Z,87.44
2017-12-31T11:05:32.391Z,87.39
2017-12-31T11:07:59.200Z,86.26
2017-12-31T11:10:26.317Z,87.69
2017-12-31T11:12:54.835Z,87.36
2017-12-31T11:15:22.065Z,86.66
2017-12-31T11:17:48.965Z,87.12
2017-12-31T11:20:15.776Z,85.18
2017-12-31T11:22:43.006Z,86.59
2017-12-31T11:25:10.573Z,86.60
2017-12-31T11:27:44.954Z,85.91
2017-12-31T11:30:13.984Z,86.63
2017-12-31T11:32:43.406Z,85.92
2017-12-31T11:35:17.985Z,86.74
2017-12-31T11:37:46.998Z,86.50
2017-12-31T11:40:20.597Z,86.19
2017-12-31T11:42:48.575Z,86.82
2017-12-31T11:45:15.607Z,86.04
2017-12-31T11:47:57.870Z,86.27
2017-12-31T11:50:24.905Z,85.11
2017-12-31T11:52:51.672Z,85.93
2017-12-31T11:55:18.611Z,86.03
2017-12-31T11:57:45.803Z,84.57
2017-12-31T12:00:13.968Z,85.57
2017-12-31T12:02:44.386Z,85.88
2017-12-31T12:05:11.530Z,85.07
2017-12-31T12:07:39.590Z,84.29
2017-12-31T12:10:07.555Z,84.75
2017-12-31T12:15:13.359Z,84.56
2017-12-31T12:17:40.511Z,84.23
2017-12-31T12:20:08.448Z,83.56
2017-12-31T12:22:36.243Z,83.36
2017-12-31T12:25:03.125Z,84.67
2017-12-31T12:27:35.210Z,84.48
2017-12-31T12:30:02.816Z,84.15
2017-12-31T12:32:30.347Z,84.75
2017-12-31T12:34:57.385Z,84.48
2017-12-31T12:37:27.660Z,84.02
2017-12-31T12:39:55.817Z,84.64
2017-12-31T12:42:26.667Z,84.08
2017-12-31T12:44:58.972Z,82.79
2017-12-31T12:47:26.984Z,84.89
2017-12-31T12:49:54.356Z,84.30
2017-12-31T12:52:21.297Z,83.94
2017-12-31T12:54:48.413Z,84.03
2017-12-31T12:57:18.870Z,83.18
2017-12-31T12:59:51.711Z,83.16
2017-12-31T13:02:20.027Z,82.99
2017-12-31T13:04:49.788Z,83.14
2017-12-31T13:07:18.861Z,83.06
2017-12-31T13:09:48.435Z,82.64
2017-12-31T13:12:16.717Z,82.85
2017-12-31T13:14:44.208Z,82.70
2017-12-31T13:17:11.563Z,83.13
2017-12-31T13:19:39.778Z,82.33
2017-12-31T13:22:07.351Z,82.92
2017-12-31T13:24:34.852Z,83.10
2017-12-31T13:27:02.861Z,82.71
2017-12-31T13:29:31.207Z,83.60
2017-12-31T13:31:58.663Z,83.05
2017-12-31T13:34:26.724Z,83.09
2017-12-31T13:36:57.733Z,82.59
2017-12-31T13:39:24.917Z,83.00
2017-12-31T13:41:52.821Z,81.92
2017-12-31T13:44:20.572Z,82.38
2017-12-31T13:46:47.588Z,82.61
2017-12-31T13:49:15.304Z,82.13
2017-12-31T13:51:42.658Z,82.80
2017-12-31T13:54:11.550Z,80.88
2017-12-31T13:56:46.378Z,81.91
2017-12-31T13:59:20.629Z,81.43
2017-12-31T14:01:47.917Z,82.23
2017-12-31T14:04:15.443Z,81.79
2017-12-31T14:06:47.887Z,81.73
2017-12-31T14:09:21.044Z,81.34
2017-12-31T14:11:47.876Z,81.52
2017-12-31T14:14:15.746Z,81.43
2017-12-31T14:16:42.729Z,81.38
2017-12-31T14:19:09.851Z,81.08
2017-12-31T14:21:39.057Z,80.79
2017-12-31T14:24:09.484Z,80.44
2017-12-31T14:26:36.636Z,79.86
2017-12-31T14:29:03.472Z,79.20
2017-12-31T14:31:30.265Z,78.42
2017-12-31T14:34:02.199Z,78.08
2017-12-31T14:36:29.412Z,78.55
2017-12-31T14:38:56.594Z,78.40
2017-12-31T14:41:24.815Z,77.98
2017-12-31T14:43:52.877Z,77.72
2017-12-31T14:46:19.637Z,76.86
2017-12-31T14:48:49.628Z,78.05
2017-12-31T14:51:17.261Z,79.15
2017-12-31T14:53:45.207Z,79.29
2017-12-31T14:56:12.080Z,78.83
2017-12-31T14:58:38.962Z,79.30
2017-12-31T15:01:12.914Z,78.71
2017-12-31T15:03:45.160Z,79.40
2017-12-31T15:06:13.290Z,80.60
2017-12-31T15:08:42.083Z,80.08
2017-12-31T15:11:09.853Z,80.52
2017-12-31T15:13:37.203Z,80.95
2017-12-31T15:16:12.421Z,81.25
2017-12-31T15:18:39.307Z,81.54
2017-12-31T15:21:07.926Z,82.35
2017-12-31T15:23:35.230Z,82.13
2017-12-31T15:26:02.504Z,81.94
2017-12-31T15:28:29.524Z,82.28
2017-12-31T15:30:56.826Z,81.93
2017-12-31T15:33:29.148Z,80.82
2017-12-31T15:35:57.082Z,80.37
2017-12-31T15:38:26.998Z,81.40
2017-12-31T15:40:59.462Z,82.30
2017-12-31T15:43:37.243Z,82.44
2017-12-31T15:46:04.980Z,82.81
2017-12-31T15:48:37.200Z,82.85
2017-12-31T15:51:07.282Z,84.32
2017-12-31T15:53:34.137Z,84.63
2017-12-31T15:56:06.638Z,85.37
2017-12-31T15:58:33.745Z,86.28
2017-12-31T16:01:00.641Z,87.02
2017-12-31T16:03:28.554Z,87.33
2017-12-31T16:05:57.009Z,87.96
2017-12-31T16:08:24.449Z,88.30
2017-12-31T16:10:51.862Z,89.24
2017-12-31T16:13:24.928Z,89.25
2017-12-31T16:15:58.098Z,88.50
2017-12-31T16:18:25.085Z,89.26
2017-12-31T16:20:52.564Z,88.97
2017-12-31T16:23:25.039Z,88.43
2017-12-31T16:25:53.116Z,88.08
2017-12-31T16:28:27.297Z,87.89
2017-12-31T16:31:00.840Z,88.39
2017-12-31T16:33:33.489Z,88.52
2017-12-31T16:36:06.852Z,89.02
2017-12-31T16:38:37.036Z,89.33
2017-12-31T16:41:09.744Z,89.85
2017-12-31T16:43:38.554Z,89.42
2017-12-31T16:46:08.537Z,90.09
2017-12-31T16:48:41.798Z,90.06
2017-12-31T16:51:09.020Z,89.73
2017-12-31T16:53:41.757Z,89.42
2017-12-31T16:56:14.392Z,89.38
2017-12-31T16:58:42.191Z,89.86
2017-12-31T17:01:10.168Z,90.13
2017-12-31T17:03:38.257Z,90.30
2017-12-31T17:06:05.827Z,90.29
2017-12-31T17:08:38.224Z,90.37
2017-12-31T17:11:05.508Z,90.77
2017-12-31T17:13:32.846Z,90.39
2017-12-31T17:16:05.673Z,90.65
2017-12-31T17:18:33.534Z,91.06
2017-12-31T17:21:01.758Z,91.58
2017-12-31T17:23:29.075Z,91.91
2017-12-31T17:26:02.497Z,92.23
2017-12-31T17:28:31.199Z,92.43
2017-12-31T17:30:58.226Z,92.59
2017-12-31T17:33:30.730Z,92.66
2017-12-31T17:35:58.126Z,92.65
2017-12-31T17:38:25.390Z,92.52
2017-12-31T17:41:03.927Z,92.51
2017-12-31T17:43:41.766Z,92.74
2017-12-31T17:46:12.779Z,93.21
2017-12-31T17:48:40.175Z,93.15
2017-12-31T17:51:12.644Z,93.09
2017-12-31T17:53:43.418Z,93.30
2017-12-31T17:56:19.331Z,93.40
2017-12-31T17:58:47.496Z,93.54
2017-12-31T18:01:16.445Z,93.72
2017-12-31T18:03:43.769Z,93.93
2017-12-31T18:06:10.653Z,93.61
2017-12-31T18:08:37.455Z,93.92
2017-12-31T18:11:08.244Z,94.12
2017-12-31T18:13:35.166Z,94.21
2017-12-31T18:16:03.572Z,94.28
2017-12-31T18:18:35.671Z,94.42
2017-12-31T18:21:03.600Z,94.54
2017-12-31T18:23:35.798Z,94.42
2017-12-31T18:26:05.737Z,94.86
2017-12-31T18:28:33.891Z,95.27
2017-12-31T18:31:07.074Z,94.94
2017-12-31T18:33:36.128Z,95.22
2017-12-31T18:36:07.973Z,95.33
2017-12-31T18:38:36.095Z,95.27
2017-12-31T18:41:03.622Z,95.35
2017-12-31T18:43:31.542Z,95.15
2017-12-31T18:46:04.570Z,95.25
2017-12-31T18:48:32.746Z,95.15
2017-12-31T18:50:59.996Z,95.64
2017-12-31T18:53:32.415Z,95.04
2017-12-31T18:56:00.340Z,95.18
2017-12-31T18:58:28.570Z,95.32
2017-12-31T19:01:00.626Z,95.31
2017-12-31T19:03:28.623Z,95.19
2017-12-31T19:05:56.769Z,95.54
2017-12-31T19:08:29.140Z,94.84
2017-12-31T19:10:58.998Z,94.78
2017-12-31T19:13:28.367Z,94.52
2017-12-31T19:15:57.050Z,94.16
2017-12-31T19:18:24.182Z,94.20
2017-12-31T19:20:52.136Z,94.30
2017-12-31T19:23:26.536Z,93.83
2017-12-31T19:25:54.440Z,93.88
2017-12-31T19:28:26.458Z,93.35
2017-12-31T19:31:05.663Z,92.59
2017-12-31T19:33:33.605Z,92.30
2017-12-31T19:36:01.046Z,92.17
2017-12-31T19:38:28.332Z,91.64
2017-12-31T19:40:57.554Z,91.71
2017-12-31T19:43:25.284Z,91.03
2017-12-31T19:45:52.253Z,91.17
2017-12-31T19:48:25.768Z,89.88
2017-12-31T19:50:55.275Z,89.28
2017-12-31T19:53:24.415Z,89.57
2017-12-31T19:55:51.770Z,88.16
2017-12-31T19:58:24.847Z,89.13
2017-12-31T20:00:51.877Z,90.58
2017-12-31T20:03:30.911Z,92.08
2017-12-31T20:05:58.194Z,92.85
2017-12-31T20:08:26.302Z,93.16
2017-12-31T20:11:00.338Z,93.74
2017-12-31T20:13:27.732Z,94.13
2017-12-31T20:15:55.170Z,94.12
2017-12-31T20:18:27.574Z,93.96
2017-12-31T20:20:55.915Z,94.13
2017-12-31T20:23:23.676Z,93.82
2017-12-31T20:25:52.949Z,93.74
2017-12-31T20:28:26.334Z,93.96
2017-12-31T20:30:55.270Z,94.11
2017-12-31T20:33:27.857Z,94.27
2017-12-31T20:35:56.052Z,93.63
2017-12-31T20:38:23.450Z,94.50
2017-12-31T20:40:50.612Z,94.02
2017-12-31T20:43:23.795Z,94.72
2017-12-31T20:45:55.331Z,95.20
2017-12-31T20:48:25.795Z,94.89
2017-12-31T20:50:52.784Z,95.05
2017-12-31T20:53:20.941Z,95.16
2017-12-31T20:55:48.086Z,95.48
2017-12-31T20:58:15.817Z,95.05
2017-12-31T21:00:44.921Z,95.28
2017-12-31T21:21:12.391Z,94.54
2017-12-31T21:23:39.450Z,94.82
2017-12-31T21:26:07.593Z,94.61
2017-12-31T21:28:40.167Z,94.35
2017-12-31T21:31:07.602Z,94.46
2017-12-31T21:33:36.159Z,94.20
2017-12-31T21:36:03.528Z,94.21
2017-12-31T21:38:36.874Z,94.33
2017-12-31T21:41:04.171Z,94.13
2017-12-31T21:43:31.971Z,94.45
2017-12-31T21:45:59.829Z,93.72
2017-12-31T21:48:27.632Z,93.39
2017-12-31T21:50:55.334Z,93.34
2017-12-31T21:53:25.515Z,93.30
2017-12-31T21:55:52.464Z,93.65
2017-12-31T21:58:19.899Z,93.24
2017-12-31T22:22:04.696Z,91.80
2017-12-31T22:24:49.824Z,91.82
2017-12-31T22:29:55.777Z,91.75
2017-12-31T22:32:24.352Z,91.98
2017-12-31T22:34:51.974Z,91.91
2017-12-31T22:37:25.996Z,92.06
2017-12-31T22:39:53.978Z,92.44
2017-12-31T22:42:22.109Z,91.83
2017-12-31T22:44:49.322Z,91.80
2017-12-31T22:47:19.142Z,91.89
2017-12-31T22:49:47.051Z,91.93
2017-12-31T22:52:18.862Z,91.04
2017-12-31T22:54:47.567Z,90.29
2017-12-31T22:57:14.880Z,87.11
2017-12-31T22:59:42.202Z,88.07
2017-12-31T23:02:15.552Z,87.25
2017-12-31T23:04:51.190Z,86.99
2017-12-31T23:07:29.950Z,85.71
2017-12-31T23:09:59.120Z,87.60
2017-12-31T23:12:27.294Z,88.29
2017-12-31T23:14:57.545Z,88.31
2017-12-31T23:17:27.278Z,88.44
2017-12-31T23:38:40.303Z,88.70
2017-12-31T23:41:13.818Z,89.33
2017-12-31T23:43:53.124Z,89.25
2017-12-31T23:46:25.531Z,88.41
2017-12-31T23:48:54.684Z,89.44
2017-12-31T23:51:22.802Z,89.16
2017-12-31T23:53:51.874Z,88.69
2017-12-31T23:56:23.757Z,88.87
2017-12-31T23:58:52.336Z,88.84
